Jarratt, VA (23867)

8:03 PM EDT on September 29, 2016 (GMT -0400)
purdy | | Change Station

Elev 200 ft 36.79 °N, 77.57 °W | Updated 18 seconds ago

Overcast
Overcast
71.9 °F
Feels Like 71.9 °F
N
0.0
Wind Variable Wind from SE
Gusts 0.0 mph

Today
High -- | Low -- °F
--% Chance of Precip.
Yesterday
High -- | Low -- °F
Precip. -- in
Pressure 30.06 in
Visibility 10.0 miles
Clouds Mostly Cloudy 900 ft
Mostly Cloudy 1500 ft
Overcast 2200 ft
Dew Point 71 °F
Humidity 96%
Rainfall 0.36 in
Snow Depth Not available.
7:03 AM 6:55 PM
Waning Crescent, 1% visible
METAR KEMV 292355Z AUTO 04007KT 000V060 10SM BKN009 BKN015 OVC022 22/21 A3006 RMK AO2
Pressure 30.06 in
Visibility 10.0 miles
Clouds Mostly Cloudy 900 ft
Mostly Cloudy 1500 ft
Overcast 2200 ft
Dew Point 71 °F
Humidity 96%
Rainfall 0.36 in
Snow Depth Not available.
7:03 AM 6:55 PM
Waning Crescent, 1% visible
METAR KEMV 292355Z AUTO 04007KT 000V060 10SM BKN009 BKN015 OVC022 22/21 A3006 RMK AO2

10-Day Weather Forecast

Almanac

Astronomy

Sep. 29, 2016 Rise Set
Actual Time
Civil Twilight
Nautical Twilight
Astronomical Twilight
Moon
Length of Visible Light
Length of Day
Tomorrow will be .
, % of the Moon is Illuminated

Today's Extremes

State Highs State Lows

Community

WunderPhotos

Upload Photos

1,942,602 photos uploaded!

WunderBlog® & News

Nearby

Air Quality

  Air Quality AQ Index Pollutant
Not available.

Snow Depth

Station Depth Elevation

Earthquake Activity

City Distance Mag. Time & Date
Minimum magnitude displayed is 2.5.

Coastal Water Temperatures

Place Temperature

Stations

Nearby Weather Stations

Station Location Temp. Windchill Dew Point Humidity Wind Precip. Elev Updated Type
                   

Watches & Warnings

There are currently no watches in effect.